Abis Cuxhaven — PBYB — position and weather

sailwx.info

Track history (hours):
 
Tides and Currents Weather Stations Pressure Air Temp Water Temp Dewpoint Dewpoint Depression Visibility Wind Speed Wind Dir Waves Ship Positions

Abis Cuxhaven

Last reported at 2014-Sep-30 06:33 UTC. Time now 2014-Oct-01 00:06 UTC.
Position N 36°53' E 013°46'.

Length 114 m; draft 4.5 m.

Type: Cargo ship. MMSI: 246670000.

Date/timePositionNaut miles runAvg speedWind from/ knotsBaromVisibWave heightAir tempDewpointWater temp
2014-Sep-30 06:33N 36°53' E 013°46'10 9.5
2014-Sep-30 05:33N 36°50' E 013°58'9 9.4
2014-Sep-30 04:33N 36°48' E 014°09'10 9.6
2014-Sep-30 03:33N 36°45' E 014°20'1010.1
2014-Sep-30 02:33N 36°42' E 014°33'  
2014-Sep-27 10:20N 42°51' E 010°38'6 5.4
2014-Sep-27 09:14N 42°56' E 010°33'0 0.0
2014-Sep-26 06:23N 42°56' E 010°33'0 0.0
2014-Sep-25 15:05N 42°56' E 010°33'31 1.4
2014-Sep-24 17:12N 42°55' E 009°50'19 9.2
2014-Sep-24 15:08N 43°03' E 009°27'6 9.5
2014-Sep-24 14:30N 43°04' E 009°19'9010.1
2014-Sep-24 05:33N 43°00' E 007°15'9 9.4
2014-Sep-24 04:33N 42°59' E 007°03'9 9.1
2014-Sep-24 03:33N 42°59' E 006°50'9 8.7
2014-Sep-24 02:33N 42°58' E 006°38'8 8.4
2014-Sep-24 01:33N 42°58' E 006°27'8 8.1
2014-Sep-24 00:33N 42°57' E 006°16'8 8.1
2014-Sep-23 23:33N 42°58' E 006°05'8 8.5
2014-Sep-23 22:33N 43°01' E 005°54'8 8.2
2014-Sep-23 21:33N 43°03' E 005°43'8 8.3
2014-Sep-23 20:33N 43°05' E 005°32'13 9.2
2014-Sep-23 19:11N 43°09' E 005°15'6 9.2
2014-Sep-23 18:33N 43°11' E 005°08'8 8.1
2014-Sep-23 17:34N 43°17' E 004°60'8 8.3
2014-Sep-23 16:33N 43°24' E 004°54'2 1.9
2014-Sep-23 15:32N 43°26' E 004°53'0 0.0
2014-Sep-23 14:32N 43°26' E 004°53'0 0.0
2014-Sep-23 13:32N 43°26' E 004°53'0 0.0
2014-Sep-23 12:32N 43°26' E 004°53'0 0.0
2014-Sep-23 11:32N 43°26' E 004°53'0 0.0
2014-Sep-23 10:32N 43°26' E 004°53'0 0.0
2014-Sep-23 09:32N 43°26' E 004°53'0 0.0
2014-Sep-23 08:32N 43°26' E 004°53'0 0.0
2014-Sep-23 07:32N 43°26' E 004°53'0 0.0
2014-Sep-23 06:32N 43°26' E 004°53'0 0.0
2014-Sep-23 05:32N 43°26' E 004°53'0 0.0
2014-Sep-23 04:32N 43°26' E 004°53'0 0.0
2014-Sep-23 03:32N 43°26' E 004°53'0 0.0
2014-Sep-23 02:32N 43°26' E 004°53'0 0.0
2014-Sep-23 01:32N 43°26' E 004°53'0 0.0
2014-Sep-23 00:32N 43°26' E 004°53'0 0.0
2014-Sep-22 23:32N 43°26' E 004°53'0 0.0
2014-Sep-22 22:32N 43°26' E 004°53'0 0.0
2014-Sep-22 21:32N 43°26' E 004°53'0 0.0
2014-Sep-22 20:32N 43°26' E 004°53'0 0.0
2014-Sep-22 19:32N 43°26' E 004°53'0 0.0
2014-Sep-22 18:32N 43°26' E 004°53'0 0.0
2014-Sep-22 17:32N 43°26' E 004°53'0 0.0
2014-Sep-22 16:32N 43°26' E 004°53'0 0.0
2014-Sep-22 15:32N 43°26' E 004°53'0 0.0
2014-Sep-22 14:32N 43°26' E 004°53'0 0.0
2014-Sep-22 13:32N 43°26' E 004°53'3 2.6
2014-Sep-22 12:33N 43°25' E 004°57'0 0.1
2014-Sep-22 11:33N 43°25' E 004°57'0 0.0
2014-Sep-22 10:33N 43°25' E 004°57'0 0.0
2014-Sep-22 09:33N 43°25' E 004°57'0 0.0
2014-Sep-22 08:33N 43°25' E 004°57'0 0.0
2014-Sep-22 07:33N 43°25' E 004°57'0 0.0
2014-Sep-22 06:33N 43°25' E 004°57'0 0.0
2014-Sep-22 05:33N 43°25' E 004°57'0 0.0
2014-Sep-22 04:33N 43°25' E 004°57'0 0.0
2014-Sep-22 03:33N 43°25' E 004°57'0 0.0
2014-Sep-22 02:33N 43°25' E 004°57'0 0.0
2014-Sep-22 01:33N 43°25' E 004°57'0 0.0
2014-Sep-22 00:33N 43°25' E 004°57'0 0.0
2014-Sep-21 23:33N 43°25' E 004°57'0 0.0
2014-Sep-21 22:33N 43°25' E 004°57'0 0.0
2014-Sep-21 21:33N 43°25' E 004°57'0 0.0
2014-Sep-21 20:33N 43°25' E 004°57'0 0.0
2014-Sep-21 19:30N 43°25' E 004°57'0 0.0
2014-Sep-21 18:33N 43°25' E 004°57'0 0.0
2014-Sep-21 17:33N 43°25' E 004°57'0 0.0
2014-Sep-21 16:33N 43°25' E 004°57'0 0.0
2014-Sep-21 15:33N 43°25' E 004°57'0 0.0
2014-Sep-21 14:33N 43°25' E 004°57'0 0.0
2014-Sep-21 13:33N 43°25' E 004°57'0 0.0
2014-Sep-21 12:33N 43°25' E 004°57'0 0.0
2014-Sep-21 11:33N 43°25' E 004°57'0 0.0
2014-Sep-21 10:33N 43°25' E 004°57'0 0.0
2014-Sep-21 09:33N 43°25' E 004°57'0 0.0
2014-Sep-21 08:33N 43°25' E 004°57'0 0.0
2014-Sep-21 07:33N 43°25' E 004°57'0 0.1
2014-Sep-21 06:33N 43°25' E 004°57'0 0.0
2014-Sep-21 05:33N 43°25' E 004°57'0 0.0
2014-Sep-21 04:33N 43°25' E 004°57'0 0.1
2014-Sep-21 03:33N 43°25' E 004°57'0 0.0
2014-Sep-21 02:33N 43°25' E 004°57'0 0.0
2014-Sep-21 01:33N 43°25' E 004°57'0 0.0
2014-Sep-21 00:33N 43°25' E 004°57'0 0.0
2014-Sep-20 23:33N 43°25' E 004°57'0 0.0
2014-Sep-20 22:33N 43°25' E 004°57'0 0.0
2014-Sep-20 21:33N 43°25' E 004°57'0 0.0
2014-Sep-20 20:33N 43°25' E 004°57'0 0.1
2014-Sep-20 19:33N 43°25' E 004°57'0 0.0
2014-Sep-20 18:33N 43°25' E 004°57'0 0.1
2014-Sep-20 17:33N 43°25' E 004°57'7 7.2
2014-Sep-20 16:33N 43°18' E 004°59'1110.8
2014-Sep-20 15:33N 43°07' E 004°54'1010.1
2014-Sep-20 14:33N 42°57' E 004°51'10 9.8
2014-Sep-20 13:29N 42°47' E 004°48'9 9.7
2014-Sep-20 12:33N 42°39' E 004°44'10 9.7
2014-Sep-20 11:33N 42°29' E 004°41'11 9.9
2014-Sep-20 10:26N 42°19' E 004°37'11 9.9
2014-Sep-20 09:20N 42°08' E 004°32'810.0
2014-Sep-20 08:33N 42°01' E 004°29'1010.2
2014-Sep-20 07:33N 41°51' E 004°26'  
Track history (hours):
 
Tides and Currents Weather Stations Pressure Air Temp Water Temp Dewpoint Dewpoint Depression Visibility Wind Speed Wind Dir Waves Ship Positions

Abis Cuxhaven

Last reported at 2014-Sep-30 06:33 UTC. Time now 2014-Oct-01 00:06 UTC.
Position N 36°53' E 013°46'.

Length 114 m; draft 4.5 m.

Type: Cargo ship. MMSI: 246670000.

Date/timePositionNaut miles runAvg speedWind from/ knotsBaromVisibWave heightAir tempDewpointWater temp
2014-Sep-30 06:33N 36°53' E 013°46'10 9.5
2014-Sep-30 05:33N 36°50' E 013°58'9 9.4
2014-Sep-30 04:33N 36°48' E 014°09'10 9.6
2014-Sep-30 03:33N 36°45' E 014°20'1010.1
2014-Sep-30 02:33N 36°42' E 014°33'  
2014-Sep-27 10:20N 42°51' E 010°38'6 5.4
2014-Sep-27 09:14N 42°56' E 010°33'0 0.0
2014-Sep-26 06:23N 42°56' E 010°33'0 0.0
2014-Sep-25 15:05N 42°56' E 010°33'31 1.4
2014-Sep-24 17:12N 42°55' E 009°50'19 9.2
2014-Sep-24 15:08N 43°03' E 009°27'6 9.5
2014-Sep-24 14:30N 43°04' E 009°19'9010.1
2014-Sep-24 05:33N 43°00' E 007°15'9 9.4
2014-Sep-24 04:33N 42°59' E 007°03'9 9.1
2014-Sep-24 03:33N 42°59' E 006°50'9 8.7
2014-Sep-24 02:33N 42°58' E 006°38'8 8.4
2014-Sep-24 01:33N 42°58' E 006°27'8 8.1
2014-Sep-24 00:33N 42°57' E 006°16'8 8.1
2014-Sep-23 23:33N 42°58' E 006°05'8 8.5
2014-Sep-23 22:33N 43°01' E 005°54'8 8.2
2014-Sep-23 21:33N 43°03' E 005°43'8 8.3
2014-Sep-23 20:33N 43°05' E 005°32'13 9.2
2014-Sep-23 19:11N 43°09' E 005°15'6 9.2
2014-Sep-23 18:33N 43°11' E 005°08'8 8.1
2014-Sep-23 17:34N 43°17' E 004°60'8 8.3
2014-Sep-23 16:33N 43°24' E 004°54'2 1.9
2014-Sep-23 15:32N 43°26' E 004°53'0 0.0
2014-Sep-23 14:32N 43°26' E 004°53'0 0.0
2014-Sep-23 13:32N 43°26' E 004°53'0 0.0
2014-Sep-23 12:32N 43°26' E 004°53'0 0.0
2014-Sep-23 11:32N 43°26' E 004°53'0 0.0
2014-Sep-23 10:32N 43°26' E 004°53'0 0.0
2014-Sep-23 09:32N 43°26' E 004°53'0 0.0
2014-Sep-23 08:32N 43°26' E 004°53'0 0.0
2014-Sep-23 07:32N 43°26' E 004°53'0 0.0
2014-Sep-23 06:32N 43°26' E 004°53'0 0.0
2014-Sep-23 05:32N 43°26' E 004°53'0 0.0
2014-Sep-23 04:32N 43°26' E 004°53'0 0.0
2014-Sep-23 03:32N 43°26' E 004°53'0 0.0
2014-Sep-23 02:32N 43°26' E 004°53'0 0.0
2014-Sep-23 01:32N 43°26' E 004°53'0 0.0
2014-Sep-23 00:32N 43°26' E 004°53'0 0.0
2014-Sep-22 23:32N 43°26' E 004°53'0 0.0
2014-Sep-22 22:32N 43°26' E 004°53'0 0.0
2014-Sep-22 21:32N 43°26' E 004°53'0 0.0
2014-Sep-22 20:32N 43°26' E 004°53'0 0.0
2014-Sep-22 19:32N 43°26' E 004°53'0 0.0
2014-Sep-22 18:32N 43°26' E 004°53'0 0.0
2014-Sep-22 17:32N 43°26' E 004°53'0 0.0
2014-Sep-22 16:32N 43°26' E 004°53'0 0.0
2014-Sep-22 15:32N 43°26' E 004°53'0 0.0
2014-Sep-22 14:32N 43°26' E 004°53'0 0.0
2014-Sep-22 13:32N 43°26' E 004°53'3 2.6
2014-Sep-22 12:33N 43°25' E 004°57'0 0.1
2014-Sep-22 11:33N 43°25' E 004°57'0 0.0
2014-Sep-22 10:33N 43°25' E 004°57'0 0.0
2014-Sep-22 09:33N 43°25' E 004°57'0 0.0
2014-Sep-22 08:33N 43°25' E 004°57'0 0.0
2014-Sep-22 07:33N 43°25' E 004°57'0 0.0
2014-Sep-22 06:33N 43°25' E 004°57'0 0.0
2014-Sep-22 05:33N 43°25' E 004°57'0 0.0
2014-Sep-22 04:33N 43°25' E 004°57'0 0.0
2014-Sep-22 03:33N 43°25' E 004°57'0 0.0
2014-Sep-22 02:33N 43°25' E 004°57'0 0.0
2014-Sep-22 01:33N 43°25' E 004°57'0 0.0
2014-Sep-22 00:33N 43°25' E 004°57'0 0.0
2014-Sep-21 23:33N 43°25' E 004°57'0 0.0
2014-Sep-21 22:33N 43°25' E 004°57'0 0.0
2014-Sep-21 21:33N 43°25' E 004°57'0 0.0
2014-Sep-21 20:33N 43°25' E 004°57'0 0.0
2014-Sep-21 19:30N 43°25' E 004°57'0 0.0
2014-Sep-21 18:33N 43°25' E 004°57'0 0.0
2014-Sep-21 17:33N 43°25' E 004°57'0 0.0
2014-Sep-21 16:33N 43°25' E 004°57'0 0.0
2014-Sep-21 15:33N 43°25' E 004°57'0 0.0
2014-Sep-21 14:33N 43°25' E 004°57'0 0.0
2014-Sep-21 13:33N 43°25' E 004°57'0 0.0
2014-Sep-21 12:33N 43°25' E 004°57'0 0.0
2014-Sep-21 11:33N 43°25' E 004°57'0 0.0
2014-Sep-21 10:33N 43°25' E 004°57'0 0.0
2014-Sep-21 09:33N 43°25' E 004°57'0 0.0
2014-Sep-21 08:33N 43°25' E 004°57'0 0.0
2014-Sep-21 07:33N 43°25' E 004°57'0 0.1
2014-Sep-21 06:33N 43°25' E 004°57'0 0.0
2014-Sep-21 05:33N 43°25' E 004°57'0 0.0
2014-Sep-21 04:33N 43°25' E 004°57'0 0.1
2014-Sep-21 03:33N 43°25' E 004°57'0 0.0
2014-Sep-21 02:33N 43°25' E 004°57'0 0.0
2014-Sep-21 01:33N 43°25' E 004°57'0 0.0
2014-Sep-21 00:33N 43°25' E 004°57'0 0.0
2014-Sep-20 23:33N 43°25' E 004°57'0 0.0
2014-Sep-20 22:33N 43°25' E 004°57'0 0.0
2014-Sep-20 21:33N 43°25' E 004°57'0 0.0
2014-Sep-20 20:33N 43°25' E 004°57'0 0.1
2014-Sep-20 19:33N 43°25' E 004°57'0 0.0
2014-Sep-20 18:33N 43°25' E 004°57'0 0.1
2014-Sep-20 17:33N 43°25' E 004°57'7 7.2
2014-Sep-20 16:33N 43°18' E 004°59'1110.8
2014-Sep-20 15:33N 43°07' E 004°54'1010.1
2014-Sep-20 14:33N 42°57' E 004°51'10 9.8
2014-Sep-20 13:29N 42°47' E 004°48'9 9.7
2014-Sep-20 12:33N 42°39' E 004°44'10 9.7
2014-Sep-20 11:33N 42°29' E 004°41'11 9.9
2014-Sep-20 10:26N 42°19' E 004°37'11 9.9
2014-Sep-20 09:20N 42°08' E 004°32'810.0
2014-Sep-20 08:33N 42°01' E 004°29'1010.2
2014-Sep-20 07:33N 41°51' E 004°26'  

Dump ship's entire track history